Time;durP1;ratioP1;P1;durP2;ratioP2;P2;SDS_P1;SDS_P2;PMS_P1;PMS_P2;Temp;Humidity;BMP_temperature;BMP_pressure;BME280_temperature;BME280_humidity;BME280_pressure;Samples;Min_cycle;Max_cycle;Signal;HPM_P1;HPM_P2
2021/03/17 00:00:19;;;;;;;55.47;12.60;;;;;;;;;;4993811;28;20113;-64
2021/03/17 00:02:45;;;;;;;77.28;15.90;;;;;;;;;;4992564;28;20089;-65
2021/03/17 00:05:11;;;;;;;65.97;11.73;;;;;;;;;;4992884;28;20040;-64
2021/03/17 00:07:36;;;;;;;44.17;10.88;;;;;;;;;;4992504;28;20026;-64
2021/03/17 00:10:02;;;;;;;52.17;8.95;;;;;;;;;;4992629;28;20062;-64
2021/03/17 00:12:27;;;;;;;54.22;11.15;;;;;;;;;;5002172;28;20108;-64
2021/03/17 00:14:52;;;;;;;57.33;11.05;;;;;;;;;;4999936;28;20038;-64
2021/03/17 00:17:18;;;;;;;60.50;12.27;;;;;;;;;;5009215;28;20041;-64
2021/03/17 00:19:43;;;;;;;47.35;9.55;;;;;;;;;;4995979;28;20025;-64
2021/03/17 00:22:08;;;;;;;51.90;10.73;;;;;;;;;;5006174;28;20101;-64
2021/03/17 00:24:34;;;;;;;58.88;9.18;;;;;;;;;;5002830;28;20092;-64
2021/03/17 00:26:59;;;;;;;49.60;8.73;;;;;;;;;;5011702;28;20029;-65
2021/03/17 00:29:25;;;;;;;61.67;9.20;;;;;;;;;;5009290;28;20112;-64
2021/03/17 00:31:50;;;;;;;53.53;10.25;;;;;;;;;;4997136;28;20034;-64
2021/03/17 00:34:15;;;;;;;61.05;9.95;;;;;;;;;;5004945;28;20030;-64
2021/03/17 00:36:40;;;;;;;57.40;9.98;;;;;;;;;;5003864;28;20045;-64
2021/03/17 00:39:06;;;;;;;49.38;9.85;;;;;;;;;;4999840;28;20045;-65
2021/03/17 00:41:31;;;;;;;57.45;8.95;;;;;;;;;;5013380;28;20045;-64
2021/03/17 00:43:56;;;;;;;60.53;10.30;;;;;;;;;;5002037;28;20046;-64
2021/03/17 00:46:22;;;;;;;63.08;9.05;;;;;;;;;;5008184;28;20045;-65
2021/03/17 00:48:47;;;;;;;48.70;10.43;;;;;;;;;;5008414;28;20041;-64
2021/03/17 00:51:12;;;;;;;64.63;10.60;;;;;;;;;;5000793;28;20045;-65
2021/03/17 00:53:37;;;;;;;62.00;11.23;;;;;;;;;;5013059;28;20046;-64
2021/03/17 00:56:03;;;;;;;53.35;9.60;;;;;;;;;;5002658;28;20493;-64
2021/03/17 00:58:28;;;;;;;59.65;11.18;;;;;;;;;;5015558;28;20037;-65
2021/03/17 01:00:53;;;;;;;61.38;14.10;;;;;;;;;;5002064;28;20046;-64
2021/03/17 01:03:18;;;;;;;41.00;9.32;;;;;;;;;;5004760;28;20102;-64
2021/03/17 01:05:44;;;;;;;60.30;9.52;;;;;;;;;;5012737;28;20035;-64
2021/03/17 01:08:09;;;;;;;45.45;7.82;;;;;;;;;;5003133;28;20125;-65
2021/03/17 01:10:38;;;;;;;43.97;8.60;;;;;;;;;;5005341;28;20450;-64
2021/03/17 01:13:04;;;;;;;46.70;8.18;;;;;;;;;;4994645;28;20117;-65
2021/03/17 01:15:30;;;;;;;71.53;8.43;;;;;;;;;;5010588;28;20113;-64
2021/03/17 01:17:55;;;;;;;56.03;9.38;;;;;;;;;;5001130;28;20013;-64
2021/03/17 01:20:23;;;;;;;50.45;9.50;;;;;;;;;;5007207;28;20534;-64
2021/03/17 01:22:48;;;;;;;51.65;9.23;;;;;;;;;;4996350;28;20038;-64
2021/03/17 01:25:15;;;;;;;49.60;7.70;;;;;;;;;;4996567;28;20374;-65
2021/03/17 01:27:40;;;;;;;47.45;7.35;;;;;;;;;;4996916;28;20554;-64
2021/03/17 01:30:06;;;;;;;51.08;9.70;;;;;;;;;;4996131;28;20234;-64
2021/03/17 01:32:32;;;;;;;42.58;7.85;;;;;;;;;;4996305;28;20422;-64
2021/03/17 01:34:57;;;;;;;39.47;7.75;;;;;;;;;;4996341;28;20146;-65
2021/03/17 01:37:22;;;;;;;54.83;7.80;;;;;;;;;;4996308;28;20483;-64
2021/03/17 01:39:48;;;;;;;54.70;8.13;;;;;;;;;;4996023;28;20070;-64
2021/03/17 01:42:13;;;;;;;53.58;10.40;;;;;;;;;;4996419;28;20042;-64
2021/03/17 01:44:38;;;;;;;57.42;9.98;;;;;;;;;;4995988;28;20560;-64
2021/03/17 01:47:04;;;;;;;59.35;11.75;;;;;;;;;;4995940;28;20014;-64
2021/03/17 01:49:29;;;;;;;79.55;12.35;;;;;;;;;;4995877;28;20122;-64
2021/03/17 01:51:55;;;;;;;57.67;9.65;;;;;;;;;;4996038;28;20117;-65
2021/03/17 01:54:20;;;;;;;75.18;12.13;;;;;;;;;;4996134;28;20026;-64
2021/03/17 01:56:45;;;;;;;47.67;10.27;;;;;;;;;;4996210;28;20439;-64
2021/03/17 01:59:10;;;;;;;58.40;10.25;;;;;;;;;;4995694;28;20048;-64
2021/03/17 02:01:36;;;;;;;57.05;10.70;;;;;;;;;;4995985;28;20026;-64
2021/03/17 02:04:01;;;;;;;60.75;9.38;;;;;;;;;;4995958;28;20116;-64
2021/03/17 02:06:27;;;;;;;55.67;9.35;;;;;;;;;;4995861;28;20030;-64
2021/03/17 02:08:52;;;;;;;44.00;8.45;;;;;;;;;;4993656;28;20545;-65
2021/03/17 02:11:17;;;;;;;59.58;10.90;;;;;;;;;;4994679;28;20034;-65
2021/03/17 02:14:00;;;;;;;53.35;9.57;;;;;;;;;;4995360;28;20368;-65
2021/03/17 02:16:46;;;;;;;65.25;9.02;;;;;;;;;;4995649;28;20034;-64
2021/03/17 02:19:11;;;;;;;64.57;11.00;;;;;;;;;;4995359;28;20038;-64
2021/03/17 02:21:55;;;;;;;39.00;8.05;;;;;;;;;;4995608;28;20081;-64
2021/03/17 02:24:26;;;;;;;53.00;11.13;;;;;;;;;;4995497;28;20387;-65
2021/03/17 02:27:18;;;;;;;60.80;9.75;;;;;;;;;;4995559;28;20034;-64
2021/03/17 02:29:47;;;;;;;56.60;9.43;;;;;;;;;;4995480;28;20069;-64
2021/03/17 02:32:18;;;;;;;55.33;10.98;;;;;;;;;;4995308;28;20072;-64
2021/03/17 02:34:45;;;;;;;63.08;9.05;;;;;;;;;;4995126;28;20503;-65
2021/03/17 02:37:13;;;;;;;52.05;7.93;;;;;;;;;;4995056;28;20480;-64
2021/03/17 02:39:44;;;;;;;58.72;9.07;;;;;;;;;;4995295;28;20380;-64
2021/03/17 02:42:12;;;;;;;55.03;9.50;;;;;;;;;;4995221;28;20026;-64
2021/03/17 02:44:51;;;;;;;67.47;9.02;;;;;;;;;;4995122;28;20142;-64
2021/03/17 02:47:16;;;;;;;65.50;9.10;;;;;;;;;;4995289;28;20042;-64
2021/03/17 02:49:42;;;;;;;42.55;8.88;;;;;;;;;;4995112;28;20042;-64
2021/03/17 02:52:08;;;;;;;53.22;8.38;;;;;;;;;;4994942;28;20018;-64
2021/03/17 02:54:34;;;;;;;50.90;8.02;;;;;;;;;;4994996;28;20497;-64
2021/03/17 02:57:08;;;;;;;61.42;8.70;;;;;;;;;;4994990;28;20081;-64
2021/03/17 02:59:35;;;;;;;68.80;8.82;;;;;;;;;;4994602;28;20031;-64
2021/03/17 03:02:00;;;;;;;66.43;10.50;;;;;;;;;;4994188;28;20034;-64
2021/03/17 03:04:26;;;;;;;54.90;8.45;;;;;;;;;;4994796;28;20160;-66
2021/03/17 03:06:54;;;;;;;62.83;9.27;;;;;;;;;;4994717;28;20038;-64
2021/03/17 03:09:20;;;;;;;55.03;8.55;;;;;;;;;;4994886;28;20035;-64
2021/03/17 03:11:46;;;;;;;52.40;9.18;;;;;;;;;;4994570;28;20026;-64
2021/03/17 03:14:12;;;;;;;50.65;7.70;;;;;;;;;;4994593;28;20049;-64
2021/03/17 03:16:38;;;;;;;60.30;8.88;;;;;;;;;;4994546;28;20045;-64
2021/03/17 03:19:05;;;;;;;59.28;9.55;;;;;;;;;;4994521;28;20014;-64
2021/03/17 03:21:31;;;;;;;58.33;8.93;;;;;;;;;;4994497;28;20483;-64
2021/03/17 03:23:57;;;;;;;73.13;9.80;;;;;;;;;;4994410;28;20030;-65
2021/03/17 03:26:23;;;;;;;47.28;7.07;;;;;;;;;;4994322;28;20418;-65
2021/03/17 03:28:49;;;;;;;57.88;8.20;;;;;;;;;;4994450;28;20037;-64
2021/03/17 03:31:15;;;;;;;51.78;8.45;;;;;;;;;;4994056;28;20093;-64
2021/03/17 03:33:41;;;;;;;43.55;7.15;;;;;;;;;;4994052;28;20030;-64
2021/03/17 03:36:06;;;;;;;57.78;8.90;;;;;;;;;;4994048;28;20027;-64
2021/03/17 03:38:32;;;;;;;62.90;8.65;;;;;;;;;;4994371;28;20038;-64
2021/03/17 03:40:57;;;;;;;44.88;6.85;;;;;;;;;;4994014;28;20097;-65
2021/03/17 03:43:23;;;;;;;66.65;8.40;;;;;;;;;;4994087;28;20030;-64
2021/03/17 03:45:48;;;;;;;58.13;7.50;;;;;;;;;;4994182;28;20563;-64
2021/03/17 03:48:14;;;;;;;62.15;8.40;;;;;;;;;;4994119;28;20016;-64
2021/03/17 03:50:44;;;;;;;46.90;7.47;;;;;;;;;;4994040;28;20380;-64
2021/03/17 03:53:15;;;;;;;46.55;7.60;;;;;;;;;;4993894;28;20042;-64
2021/03/17 03:55:48;;;;;;;52.20;8.90;;;;;;;;;;4993952;28;20030;-64
2021/03/17 03:58:14;;;;;;;40.60;7.95;;;;;;;;;;4993943;28;20117;-64
2021/03/17 04:00:41;;;;;;;49.05;7.03;;;;;;;;;;4993887;28;20040;-64
2021/03/17 04:03:07;;;;;;;55.03;9.27;;;;;;;;;;4993824;28;20113;-64
2021/03/17 04:05:35;;;;;;;56.83;8.82;;;;;;;;;;4993799;28;20161;-64
2021/03/17 04:08:04;;;;;;;52.47;8.25;;;;;;;;;;4993860;28;20367;-64
2021/03/17 04:10:30;;;;;;;48.17;7.82;;;;;;;;;;4993742;28;20041;-64
2021/03/17 04:12:56;;;;;;;46.83;6.90;;;;;;;;;;4992816;28;20116;-64
2021/03/17 04:15:22;;;;;;;47.63;9.20;;;;;;;;;;4993455;28;20058;-64
2021/03/17 04:17:53;;;;;;;58.97;7.80;;;;;;;;;;4993750;28;20034;-64
2021/03/17 04:20:21;;;;;;;54.00;7.95;;;;;;;;;;4992534;28;20479;-64
2021/03/17 04:22:47;;;;;;;45.00;8.38;;;;;;;;;;4993829;28;20027;-64
2021/03/17 04:25:13;;;;;;;48.70;8.25;;;;;;;;;;4993487;28;20048;-64
2021/03/17 04:27:40;;;;;;;46.97;8.18;;;;;;;;;;4993712;28;20033;-64
2021/03/17 04:30:06;;;;;;;45.75;7.28;;;;;;;;;;4993722;28;20030;-64
2021/03/17 04:32:32;;;;;;;50.72;7.65;;;;;;;;;;4993232;28;20518;-64
2021/03/17 04:34:58;;;;;;;54.17;7.28;;;;;;;;;;4993392;28;20018;-66
2021/03/17 04:37:25;;;;;;;44.70;7.20;;;;;;;;;;4993932;28;20053;-64
2021/03/17 04:39:51;;;;;;;47.40;7.40;;;;;;;;;;4993481;28;20089;-65
2021/03/17 04:42:17;;;;;;;66.00;8.95;;;;;;;;;;4993113;28;20010;-64
2021/03/17 04:44:43;;;;;;;75.97;9.43;;;;;;;;;;4993297;28;20057;-64
2021/03/17 04:47:12;;;;;;;51.53;10.00;;;;;;;;;;4993289;28;20387;-65
2021/03/17 04:49:38;;;;;;;55.92;7.63;;;;;;;;;;4993566;28;20467;-64
2021/03/17 04:52:04;;;;;;;47.17;7.70;;;;;;;;;;4993223;28;20034;-64
2021/03/17 04:54:29;;;;;;;51.17;7.93;;;;;;;;;;4993253;28;20042;-64
2021/03/17 04:56:55;;;;;;;42.95;7.40;;;;;;;;;;4993025;28;20105;-64
2021/03/17 04:59:21;;;;;;;54.63;8.13;;;;;;;;;;4993156;28;20022;-64
2021/03/17 05:01:46;;;;;;;45.00;6.93;;;;;;;;;;4993292;28;20034;-64
2021/03/17 05:04:12;;;;;;;54.28;7.80;;;;;;;;;;4993279;28;20025;-64
2021/03/17 05:06:38;;;;;;;58.75;7.57;;;;;;;;;;4993321;28;20010;-64
2021/03/17 05:09:05;;;;;;;43.42;7.57;;;;;;;;;;4992008;28;20034;-64
2021/03/17 05:11:31;;;;;;;52.17;8.68;;;;;;;;;;4993084;28;20019;-64
2021/03/17 05:13:56;;;;;;;44.92;7.22;;;;;;;;;;4993300;28;20096;-64
2021/03/17 05:16:22;;;;;;;48.05;6.57;;;;;;;;;;4993058;28;20042;-64
2021/03/17 05:18:48;;;;;;;42.55;7.40;;;;;;;;;;4993544;28;20015;-64
2021/03/17 05:21:14;;;;;;;51.00;7.72;;;;;;;;;;4993019;28;20506;-64
2021/03/17 05:23:40;;;;;;;53.17;7.57;;;;;;;;;;4993262;28;20069;-64
2021/03/17 05:26:05;;;;;;;56.20;8.57;;;;;;;;;;4996101;28;20510;-64
2021/03/17 05:28:30;;;;;;;51.00;7.68;;;;;;;;;;4996780;28;20114;-64
2021/03/17 05:30:56;;;;;;;53.13;7.15;;;;;;;;;;4996306;28;20038;-64
2021/03/17 05:33:22;;;;;;;48.20;6.93;;;;;;;;;;4996491;28;20034;-64
2021/03/17 05:35:47;;;;;;;40.78;6.25;;;;;;;;;;4996623;28;20023;-64
2021/03/17 05:38:13;;;;;;;57.72;7.18;;;;;;;;;;4996397;28;20038;-64
2021/03/17 05:40:38;;;;;;;55.08;6.68;;;;;;;;;;4996498;28;20015;-64
2021/03/17 05:43:07;;;;;;;49.80;6.68;;;;;;;;;;4996383;28;20463;-64
2021/03/17 05:45:34;;;;;;;36.70;6.57;;;;;;;;;;4995911;28;20532;-64
2021/03/17 05:48:00;;;;;;;46.17;8.23;;;;;;;;;;4996051;28;20021;-64
2021/03/17 05:50:25;;;;;;;56.70;7.72;;;;;;;;;;4996270;28;20022;-64
2021/03/17 05:52:50;;;;;;;50.22;6.97;;;;;;;;;;4996193;28;20468;-64
2021/03/17 05:55:16;;;;;;;49.28;7.63;;;;;;;;;;4996005;28;20081;-64
2021/03/17 05:57:42;;;;;;;44.67;6.70;;;;;;;;;;4996027;28;20097;-64
2021/03/17 06:00:11;;;;;;;52.72;7.28;;;;;;;;;;4995961;28;20034;-64
2021/03/17 06:02:37;;;;;;;49.40;7.43;;;;;;;;;;4995665;28;20463;-64
2021/03/17 06:05:03;;;;;;;42.33;6.65;;;;;;;;;;4995890;28;20027;-64
2021/03/17 06:07:31;;;;;;;43.30;6.90;;;;;;;;;;4996338;28;20030;-64
2021/03/17 06:10:00;;;;;;;62.08;7.95;;;;;;;;;;4995785;28;20022;-64
2021/03/17 06:12:27;;;;;;;50.38;7.55;;;;;;;;;;4995733;28;20026;-64
2021/03/17 06:14:53;;;;;;;35.75;7.07;;;;;;;;;;4995974;28;20061;-64
2021/03/17 06:17:19;;;;;;;63.03;8.25;;;;;;;;;;4995626;28;20029;-64
2021/03/17 06:19:47;;;;;;;51.05;7.93;;;;;;;;;;4995952;28;20034;-64
2021/03/17 06:22:12;;;;;;;56.58;7.45;;;;;;;;;;4995258;28;20472;-64
2021/03/17 06:24:39;;;;;;;54.03;8.02;;;;;;;;;;4996009;28;20025;-64
2021/03/17 06:27:04;;;;;;;60.67;6.57;;;;;;;;;;4995212;28;20599;-64
2021/03/17 06:29:30;;;;;;;57.97;7.68;;;;;;;;;;4995693;28;20109;-64
2021/03/17 06:31:55;;;;;;;51.50;7.70;;;;;;;;;;4995424;28;20153;-64
2021/03/17 06:34:20;;;;;;;57.88;8.18;;;;;;;;;;4995508;28;20037;-64
2021/03/17 06:36:47;;;;;;;51.42;7.57;;;;;;;;;;4994552;28;20489;-64
2021/03/17 06:39:12;;;;;;;70.40;8.25;;;;;;;;;;4995434;28;20018;-64
2021/03/17 06:41:41;;;;;;;50.50;7.53;;;;;;;;;;4995030;28;20026;-64
2021/03/17 06:44:08;;;;;;;46.08;7.47;;;;;;;;;;4995221;28;20133;-64
2021/03/17 06:46:33;;;;;;;51.33;7.05;;;;;;;;;;4995261;28;20506;-64
2021/03/17 06:48:58;;;;;;;49.28;6.35;;;;;;;;;;4995307;28;20053;-64
2021/03/17 06:51:24;;;;;;;43.00;6.43;;;;;;;;;;4995138;28;20475;-64
2021/03/17 06:53:50;;;;;;;31.20;6.43;;;;;;;;;;4994958;28;20072;-64
2021/03/17 06:56:22;;;;;;;43.92;6.47;;;;;;;;;;4994765;28;20386;-64
2021/03/17 06:58:52;;;;;;;63.13;7.00;;;;;;;;;;4995010;28;20117;-64
2021/03/17 07:01:40;;;;;;;46.60;7.40;;;;;;;;;;4994624;28;20018;-65
2021/03/17 07:04:17;;;;;;;57.70;7.47;;;;;;;;;;4994637;28;20037;-64
2021/03/17 07:06:43;;;;;;;59.03;7.55;;;;;;;;;;4994819;28;20030;-64
2021/03/17 07:09:19;;;;;;;47.10;7.22;;;;;;;;;;4994840;28;20037;-64
2021/03/17 07:11:46;;;;;;;39.72;6.07;;;;;;;;;;4994313;28;20463;-64
2021/03/17 07:14:11;;;;;;;55.40;7.15;;;;;;;;;;4994632;28;20469;-64
2021/03/17 07:16:41;;;;;;;34.30;6.13;;;;;;;;;;4994591;28;20105;-65
2021/03/17 07:19:07;;;;;;;35.58;6.55;;;;;;;;;;4994776;28;20049;-64
2021/03/17 07:21:39;;;;;;;59.08;7.15;;;;;;;;;;4994518;28;20475;-64
2021/03/17 07:24:07;;;;;;;55.42;6.47;;;;;;;;;;4994541;28;20045;-64
2021/03/17 07:26:36;;;;;;;41.70;6.72;;;;;;;;;;4992523;28;20066;-64
2021/03/17 07:29:11;;;;;;;43.65;6.82;;;;;;;;;;4984757;28;20129;-65
2021/03/17 07:31:37;;;;;;;30.90;6.03;;;;;;;;;;4974668;28;20487;-65
2021/03/17 07:34:13;;;;;;;39.75;6.35;;;;;;;;;;4981279;28;20316;-64
2021/03/17 07:36:45;;;;;;;38.55;6.85;;;;;;;;;;4981574;28;20065;-65
2021/03/17 07:39:18;;;;;;;63.00;8.20;;;;;;;;;;4985110;28;20058;-65
2021/03/17 07:41:44;;;;;;;41.78;6.35;;;;;;;;;;4977217;28;20154;-64
2021/03/17 07:44:10;;;;;;;33.88;6.82;;;;;;;;;;4983903;28;20539;-65
2021/03/17 07:46:37;;;;;;;50.15;7.88;;;;;;;;;;4984365;28;20049;-64
2021/03/17 07:49:03;;;;;;;45.42;6.45;;;;;;;;;;4974638;28;20054;-64
2021/03/17 07:51:29;;;;;;;38.83;6.30;;;;;;;;;;4977002;28;20030;-65
2021/03/17 07:53:55;;;;;;;51.30;6.95;;;;;;;;;;4990258;28;20026;-64
2021/03/17 07:56:24;;;;;;;41.03;6.40;;;;;;;;;;4972470;28;20030;-64
2021/03/17 07:58:51;;;;;;;45.10;8.13;;;;;;;;;;4971196;28;20046;-64
2021/03/17 08:01:17;;;;;;;35.83;6.65;;;;;;;;;;4970759;28;20015;-64
2021/03/17 08:03:44;;;;;;;49.67;8.52;;;;;;;;;;4965964;28;20106;-65
2021/03/17 08:06:09;;;;;;;45.95;7.72;;;;;;;;;;4971110;28;20067;-65
2021/03/17 08:08:35;;;;;;;38.60;6.57;;;;;;;;;;4971024;28;20061;-64
2021/03/17 08:11:01;;;;;;;35.72;6.85;;;;;;;;;;4971112;28;20146;-65
2021/03/17 08:13:26;;;;;;;35.55;5.88;;;;;;;;;;4990544;28;20038;-65
2021/03/17 08:15:51;;;;;;;31.85;6.03;;;;;;;;;;4990767;28;20066;-66
2021/03/17 08:18:32;;;;;;;26.13;5.90;;;;;;;;;;4989268;28;20045;-65
2021/03/17 08:20:57;;;;;;;35.00;7.38;;;;;;;;;;4991098;28;20041;-65
2021/03/17 08:23:41;;;;;;;43.20;7.13;;;;;;;;;;4990221;28;20034;-65
2021/03/17 08:26:11;;;;;;;43.05;6.32;;;;;;;;;;4990263;28;20038;-65
2021/03/17 08:28:56;;;;;;;39.85;6.70;;;;;;;;;;4989277;28;20088;-65
2021/03/17 08:31:37;;;;;;;38.60;5.38;;;;;;;;;;4975422;28;20392;-66
2021/03/17 08:34:18;;;;;;;35.72;5.55;;;;;;;;;;4971642;28;20125;-65
2021/03/17 08:36:43;;;;;;;28.70;5.68;;;;;;;;;;4974536;28;20066;-65
2021/03/17 08:39:09;;;;;;;31.10;5.72;;;;;;;;;;4975436;28;20035;-65
2021/03/17 08:41:37;;;;;;;23.80;5.38;;;;;;;;;;4979383;28;20105;-65
2021/03/17 08:44:12;;;;;;;34.38;5.95;;;;;;;;;;4989061;28;20034;-65
2021/03/17 08:46:37;;;;;;;26.95;6.55;;;;;;;;;;4991196;28;20387;-66
2021/03/17 08:49:04;;;;;;;36.85;7.43;;;;;;;;;;4990605;28;20249;-65
2021/03/17 08:51:44;;;;;;;29.48;6.43;;;;;;;;;;4990772;28;20022;-65
2021/03/17 08:54:28;;;;;;;22.98;5.68;;;;;;;;;;4990648;28;20073;-65
2021/03/17 08:56:53;;;;;;;27.58;6.80;;;;;;;;;;4989936;28;20456;-66
2021/03/17 08:59:19;;;;;;;33.13;6.80;;;;;;;;;;4991448;28;20053;-65
2021/03/17 09:01:45;;;;;;;31.05;5.45;;;;;;;;;;4994860;28;20076;-65
2021/03/17 09:04:10;;;;;;;29.10;5.30;;;;;;;;;;4993731;28;20050;-65
2021/03/17 09:06:35;;;;;;;22.45;5.25;;;;;;;;;;4986205;28;20030;-65
2021/03/17 09:09:03;;;;;;;32.58;7.97;;;;;;;;;;4974178;28;20057;-66
2021/03/17 09:11:31;;;;;;;28.52;8.30;;;;;;;;;;4990116;28;20515;-65
2021/03/17 09:14:00;;;;;;;36.45;7.32;;;;;;;;;;4993413;28;20482;-66
2021/03/17 09:16:27;;;;;;;26.92;7.78;;;;;;;;;;4993728;28;20077;-67
2021/03/17 09:19:12;;;;;;;34.70;7.15;;;;;;;;;;4994440;28;20027;-66
2021/03/17 09:21:43;;;;;;;24.10;5.63;;;;;;;;;;4993460;28;20070;-65
2021/03/17 09:24:27;;;;;;;27.40;7.03;;;;;;;;;;4976269;28;20035;-65
2021/03/17 09:26:59;;;;;;;23.63;5.40;;;;;;;;;;4973897;28;20480;-65
2021/03/17 09:29:25;;;;;;;30.65;6.90;;;;;;;;;;4974267;28;20035;-65
2021/03/17 09:31:52;;;;;;;24.98;5.85;;;;;;;;;;4974191;28;20034;-66
2021/03/17 09:34:24;;;;;;;31.77;5.32;;;;;;;;;;4980137;28;20479;-66
2021/03/17 09:36:49;;;;;;;19.92;5.43;;;;;;;;;;4986541;28;20061;-66
2021/03/17 09:39:16;;;;;;;26.83;5.43;;;;;;;;;;4994067;28;20057;-66
2021/03/17 09:41:47;;;;;;;22.17;4.80;;;;;;;;;;4995970;28;20038;-65
2021/03/17 09:44:13;;;;;;;26.58;6.05;;;;;;;;;;5003466;28;20112;-66
2021/03/17 09:46:42;;;;;;;20.92;6.55;;;;;;;;;;5000540;28;20050;-66
2021/03/17 09:49:12;;;;;;;21.40;6.95;;;;;;;;;;4993075;28;20028;-67
2021/03/17 09:51:44;;;;;;;18.88;6.05;;;;;;;;;;4993480;28;20038;-66
2021/03/17 09:54:10;;;;;;;32.53;8.60;;;;;;;;;;4993329;28;20085;-67
2021/03/17 09:56:43;;;;;;;23.30;6.95;;;;;;;;;;4994251;28;20030;-66
2021/03/17 09:59:18;;;;;;;18.38;4.78;;;;;;;;;;4990645;28;20109;-67
2021/03/17 10:01:49;;;;;;;17.70;4.97;;;;;;;;;;4991530;28;20046;-66
2021/03/17 10:04:21;;;;;;;20.38;6.22;;;;;;;;;;4992778;28;20105;-66
2021/03/17 10:06:46;;;;;;;19.55;4.32;;;;;;;;;;4972447;28;20039;-66
2021/03/17 10:09:12;;;;;;;15.57;3.35;;;;;;;;;;4985284;28;20044;-66
2021/03/17 10:11:37;;;;;;;16.33;4.47;;;;;;;;;;4983467;28;20014;-66
2021/03/17 10:14:09;;;;;;;14.82;3.90;;;;;;;;;;4991027;28;20054;-66
2021/03/17 10:16:34;;;;;;;11.02;3.00;;;;;;;;;;4992071;28;20021;-66
2021/03/17 10:19:00;;;;;;;13.65;3.78;;;;;;;;;;4993349;28;20371;-67
2021/03/17 10:21:25;;;;;;;13.82;3.22;;;;;;;;;;4991794;28;20030;-66
2021/03/17 10:23:51;;;;;;;12.55;2.95;;;;;;;;;;4992555;28;20023;-66
2021/03/17 10:26:17;;;;;;;14.32;2.67;;;;;;;;;;4991713;28;20022;-66
2021/03/17 10:28:42;;;;;;;17.27;2.50;;;;;;;;;;4992198;28;20039;-66
2021/03/17 10:31:07;;;;;;;15.55;2.70;;;;;;;;;;4991958;28;20022;-66
2021/03/17 10:33:33;;;;;;;8.40;2.13;;;;;;;;;;4992689;28;20487;-66
2021/03/17 10:35:58;;;;;;;9.43;1.90;;;;;;;;;;4992989;28;20463;-66
2021/03/17 10:38:25;;;;;;;7.38;1.88;;;;;;;;;;4992607;28;20034;-66
2021/03/17 10:40:51;;;;;;;9.27;1.98;;;;;;;;;;4992334;28;20150;-66
2021/03/17 10:43:18;;;;;;;12.95;2.40;;;;;;;;;;4992632;28;20109;-66
2021/03/17 10:45:46;;;;;;;10.55;2.55;;;;;;;;;;4985267;28;20141;-66
2021/03/17 10:48:12;;;;;;;13.90;2.58;;;;;;;;;;4991124;28;20211;-66
2021/03/17 10:50:39;;;;;;;8.32;1.85;;;;;;;;;;4992739;28;20379;-66
2021/03/17 10:53:16;;;;;;;7.85;2.33;;;;;;;;;;4992361;28;20049;-66
2021/03/17 10:55:41;;;;;;;10.05;2.20;;;;;;;;;;4992536;28;20438;-66
2021/03/17 10:58:10;;;;;;;9.45;2.30;;;;;;;;;;4992948;28;20109;-66
2021/03/17 11:00:36;;;;;;;11.57;2.55;;;;;;;;;;4992135;28;20018;-66
2021/03/17 11:03:01;;;;;;;7.22;1.80;;;;;;;;;;4992324;28;20364;-66
2021/03/17 11:05:27;;;;;;;13.27;1.77;;;;;;;;;;4992263;28;20057;-66
2021/03/17 11:07:59;;;;;;;11.68;2.55;;;;;;;;;;4992282;28;20085;-66
2021/03/17 11:10:45;;;;;;;10.40;2.67;;;;;;;;;;4988771;28;20567;-66
2021/03/17 11:13:13;;;;;;;9.35;2.10;;;;;;;;;;4990734;28;20503;-66
2021/03/17 11:15:44;;;;;;;9.00;2.08;;;;;;;;;;4991136;28;20034;-66
2021/03/17 11:18:10;;;;;;;16.52;2.95;;;;;;;;;;4991446;28;20038;-66
2021/03/17 11:20:40;;;;;;;9.27;2.05;;;;;;;;;;4990707;28;20019;-66
2021/03/17 11:23:17;;;;;;;11.93;1.88;;;;;;;;;;4990929;28;20034;-66
2021/03/17 11:25:43;;;;;;;9.13;2.38;;;;;;;;;;4991468;28;20708;-66
2021/03/17 11:28:12;;;;;;;9.45;2.25;;;;;;;;;;4981422;28;20404;-65
2021/03/17 11:30:42;;;;;;;8.82;2.25;;;;;;;;;;4973210;28;20030;-66
2021/03/17 11:33:08;;;;;;;8.63;2.08;;;;;;;;;;4971108;28;20039;-66
2021/03/17 11:35:34;;;;;;;17.95;2.75;;;;;;;;;;4971763;28;20097;-66
2021/03/17 11:37:59;;;;;;;6.97;2.08;;;;;;;;;;4969221;28;20553;-66
2021/03/17 11:40:24;;;;;;;18.08;3.28;;;;;;;;;;4986601;28;20023;-66
2021/03/17 11:42:49;;;;;;;11.13;2.50;;;;;;;;;;4988899;28;20463;-65
2021/03/17 11:45:15;;;;;;;11.50;2.53;;;;;;;;;;4990098;28;20177;-66
2021/03/17 11:47:40;;;;;;;11.43;2.13;;;;;;;;;;4990841;28;20456;-66
2021/03/17 11:50:06;;;;;;;12.23;2.05;;;;;;;;;;4989858;28;20034;-66
2021/03/17 11:52:31;;;;;;;11.15;2.13;;;;;;;;;;4989364;28;20506;-66
2021/03/17 11:54:56;;;;;;;13.02;2.63;;;;;;;;;;4989752;28;20058;-66
2021/03/17 11:57:22;;;;;;;10.05;2.47;;;;;;;;;;4990760;28;20513;-66
2021/03/17 11:59:47;;;;;;;7.95;1.80;;;;;;;;;;4990384;28;20395;-66
2021/03/17 12:02:12;;;;;;;11.63;2.30;;;;;;;;;;4990829;28;20053;-66
2021/03/17 12:04:37;;;;;;;8.60;1.90;;;;;;;;;;4990357;28;20034;-66
2021/03/17 12:07:05;;;;;;;10.07;3.28;;;;;;;;;;4990302;28;20056;-66
2021/03/17 12:09:30;;;;;;;10.25;2.42;;;;;;;;;;4989205;28;20431;-66
2021/03/17 12:11:55;;;;;;;8.40;2.40;;;;;;;;;;4982333;28;20053;-67
2021/03/17 12:14:20;;;;;;;8.25;2.22;;;;;;;;;;4989873;28;20471;-66
2021/03/17 12:16:46;;;;;;;14.00;2.75;;;;;;;;;;4990815;28;20026;-66
2021/03/17 12:19:11;;;;;;;12.57;2.58;;;;;;;;;;4990266;28;20034;-66
2021/03/17 12:21:36;;;;;;;15.07;2.78;;;;;;;;;;4989766;28;20474;-66
2021/03/17 12:24:02;;;;;;;9.95;3.28;;;;;;;;;;4989699;28;20018;-66
2021/03/17 12:26:27;;;;;;;10.15;3.08;;;;;;;;;;4989960;28;20522;-66
2021/03/17 12:28:52;;;;;;;10.15;3.33;;;;;;;;;;4990736;28;20034;-66
2021/03/17 12:31:18;;;;;;;11.50;3.25;;;;;;;;;;4992349;28;20030;-66
2021/03/17 12:33:43;;;;;;;12.15;3.10;;;;;;;;;;4983424;28;20046;-65
2021/03/17 12:36:08;;;;;;;10.18;3.55;;;;;;;;;;4995113;28;20096;-66
2021/03/17 12:38:34;;;;;;;10.23;3.05;;;;;;;;;;4994440;28;20359;-66
2021/03/17 12:40:59;;;;;;;10.63;2.90;;;;;;;;;;4994215;28;20069;-67
2021/03/17 12:43:25;;;;;;;11.10;3.00;;;;;;;;;;4993384;28;20034;-66
2021/03/17 12:45:50;;;;;;;13.05;2.80;;;;;;;;;;4994001;28;20023;-65
2021/03/17 12:48:16;;;;;;;7.95;2.45;;;;;;;;;;4994064;28;20045;-66
2021/03/17 12:50:41;;;;;;;6.18;2.17;;;;;;;;;;4994326;28;20038;-66
2021/03/17 12:53:07;;;;;;;7.60;2.22;;;;;;;;;;4992989;28;20041;-66
2021/03/17 12:55:32;;;;;;;8.65;2.17;;;;;;;;;;4991960;28;20510;-66
2021/03/17 12:57:58;;;;;;;15.70;3.45;;;;;;;;;;4994126;28;20101;-66
2021/03/17 13:00:23;;;;;;;20.00;4.03;;;;;;;;;;4994436;28;20037;-66
2021/03/17 13:02:49;;;;;;;16.20;4.13;;;;;;;;;;4993171;28;20165;-66
2021/03/17 13:05:14;;;;;;;13.27;2.97;;;;;;;;;;4993980;28;20133;-66
2021/03/17 13:07:40;;;;;;;6.72;2.30;;;;;;;;;;4993696;28;20027;-66
2021/03/17 13:10:08;;;;;;;8.57;1.95;;;;;;;;;;4994168;28;20030;-66
2021/03/17 13:12:33;;;;;;;9.27;2.92;;;;;;;;;;4993187;28;20075;-66
2021/03/17 13:14:59;;;;;;;10.15;2.25;;;;;;;;;;4993737;28;20113;-66
2021/03/17 13:17:24;;;;;;;11.18;2.65;;;;;;;;;;4993949;28;20034;-66
2021/03/17 13:19:50;;;;;;;10.75;2.30;;;;;;;;;;4994184;28;20383;-66
2021/03/17 13:22:15;;;;;;;10.95;2.10;;;;;;;;;;4993424;28;20023;-66
2021/03/17 13:24:41;;;;;;;9.05;1.85;;;;;;;;;;4992988;28;20031;-66
2021/03/17 13:27:06;;;;;;;11.93;2.40;;;;;;;;;;4991080;28;20042;-66
2021/03/17 13:29:31;;;;;;;5.82;2.17;;;;;;;;;;4993565;28;20050;-66
2021/03/17 13:31:57;;;;;;;10.68;2.78;;;;;;;;;;4993631;28;20045;-66
2021/03/17 13:34:22;;;;;;;16.77;3.50;;;;;;;;;;4993428;28;20132;-66
2021/03/17 13:36:47;;;;;;;12.35;3.78;;;;;;;;;;4992867;28;20033;-65
2021/03/17 13:39:13;;;;;;;19.00;4.03;;;;;;;;;;4994384;28;20450;-66
2021/03/17 13:41:38;;;;;;;23.33;4.35;;;;;;;;;;4993892;28;20069;-66
2021/03/17 13:44:03;;;;;;;22.08;4.60;;;;;;;;;;4992571;28;20038;-66
2021/03/17 13:46:29;;;;;;;21.00;4.32;;;;;;;;;;4992503;28;20030;-66
2021/03/17 13:48:54;;;;;;;16.73;4.45;;;;;;;;;;4993007;28;20398;-66
2021/03/17 13:51:19;;;;;;;17.42;4.30;;;;;;;;;;4992914;28;20467;-66
2021/03/17 13:53:45;;;;;;;21.05;4.38;;;;;;;;;;4992845;28;20097;-66
2021/03/17 13:56:11;;;;;;;17.85;4.80;;;;;;;;;;4992577;28;20040;-66
2021/03/17 13:58:36;;;;;;;21.13;4.35;;;;;;;;;;4992885;28;20060;-66
2021/03/17 14:01:01;;;;;;;25.52;4.60;;;;;;;;;;4989173;28;20037;-66
2021/03/17 14:03:26;;;;;;;19.45;4.68;;;;;;;;;;4992990;28;20042;-66
2021/03/17 14:05:52;;;;;;;18.25;4.20;;;;;;;;;;4992152;28;20029;-65
2021/03/17 14:08:17;;;;;;;23.83;4.28;;;;;;;;;;4993016;28;20034;-66
2021/03/17 14:10:42;;;;;;;15.57;4.40;;;;;;;;;;4992698;28;20045;-65
2021/03/17 14:13:08;;;;;;;26.15;4.85;;;;;;;;;;4992788;28;20084;-66
2021/03/17 14:15:33;;;;;;;21.83;4.57;;;;;;;;;;4992357;28;20044;-65
2021/03/17 14:17:59;;;;;;;23.23;4.90;;;;;;;;;;4991551;28;21025;-66
2021/03/17 14:20:26;;;;;;;25.95;5.03;;;;;;;;;;4992540;28;20026;-66
2021/03/17 14:22:51;;;;;;;17.52;3.80;;;;;;;;;;4992479;28;20034;-65
2021/03/17 14:25:16;;;;;;;21.33;3.65;;;;;;;;;;4992430;28;20103;-66
2021/03/17 14:27:42;;;;;;;14.05;3.03;;;;;;;;;;4991811;28;20018;-66
2021/03/17 14:30:08;;;;;;;16.92;3.38;;;;;;;;;;4992877;28;20045;-66